[variabel] Fokustag der RG Düsseldorf

RG Düsseldorf - Leitung
Heute Abend erwecken wir den alten Köln/Bonn Onlinedienstag mal wieder zum Leben und sind von 19 bis 22 Uhr lcl komplett gestaffed.

Als Rennstrecke bieten sich die Onlinetage in Berlin-Tegel und Zürich an, für welche die komplette ATC-Abdeckung sichergestellt ist.

Also ab in die Flieger und besucht uns heute Abend in Köln/Bönn.
 
ATD - Prüfer
RG Düsseldorf - Mentor
Sowohl heute wie auch morgen möchten wir die Abende intensiv für unsere Trainees auf GND, TWR und CTR nutzen. Wir würden uns über VFR und IFR Flüge von und nach Düsseldorf freuen. Unterstützt die angehenden Lotsinnen und Lotsen mit spannenden Aufgaben ;)
 
ATD - Prüfer
RG Düsseldorf - Mentor
Allen Piloten vielen Dank für die Unterstützung! Dank zahlreicher IFR und VFR Flüge konnten wir unseren Trainees so auch abseits der Montage Termine anbieten und wieder neue Freigaben vergeben.
 
ATD - Prüfer
RG Düsseldorf - Mentor
Heute ab 19.00 Uhr lcl besetzen unsere Trainees Düsseldorf von GND bis CTR - kommt vorbei und helft ihnen bei der Vorbereitung aufs CPT oder dem Erlangen einer Solo. IFR, VFR, C-Crossing, Midfield-Crossing, IFR-Pickup/Cancellation,... alles gerne gesehen.
 
Auch heute Abend haben wir Düsseldorf wieder für Euch geöffnet.

Wir freuen uns auf Euren Besuch!
 
RG Düsseldorf - Event
Heute Abend öffnen unsere Trainees aus der reihe von 17:00Z-20:00Z unseren Ausbildungsflughafen Düsseldorf (EDDL). Unterstützt sie mit eurem VFR oder IFR flug von oder nach Düsseldorf damit wir sie Fit für ihr CPT kriegen.
In direkter Umgebung hat auch der Köln Tower heute Abend offen für einen kleinen VFR Sprung oder für die kurze IFR strecke bietet sich der Onlinetag in München an.

Wir hören uns heute Abend auf Frequenz! Wir freuen uns auf eine menge Piloten!

TAF: EDDL 051100Z 0512/0618 21009KT CAVOK BECMG 0517/0520 15008KT BECMG 0615/0618 09006KT
 
RG Düsseldorf - Event
Heute Abend öffnen unsere Trainees wieder Spontan für euch den Flughafen Düsseldorf!

Von 17:00z - 20:00z öffnen wir euch in der Landeshauptstadt den Internationalen Flughafen für das Training unserer Trainees.
Unterstützt unseren Tower Lotsen bei seinem Letzten Training vor dem CPT mit eurem IFR oder VFR Flug, damit er zeigen kann das er seinen Flughafen im Griff hat. Auch auf dem Center möchte unser Trainee in seinem Online Training sein können unter beweis stellen.
Zur Abwechslung kann man die Donnerstags Rennstrecke Zwischen Hamburg und Stuttgart ja mal mit Zwischenstopp an unserem Airport fliegen (Ich habe gehört die Gastronomie Meile im Sicherheitsbereich soll sehr gut sein :p)
Also rein ins Cockpit und von oder nach Düsseldorf Fliegen.

Wir freuen uns, euch gleich auf Frequenz zu hören!
 
Zuletzt bearbeitet:
RG Düsseldorf - Event
Heute Abend öffnet der Flughafen Düsseldorf seine Türen außerhalb der reihe zum Trainingstag unserer angehenden Controller.

Von 17:00z (19:00lcl) bis 20:00z (22:00lcl) öffnen unsere Trainees den Flughafen von GND bis CTR für euch.
Kommt vorbei und helft unseren Trainees beim erlernen ihrer Fähigkeiten.
Als kleiner geheim Tipp heute wäre ein Shuttle zum Online-Tag nach Berlin-Tegel zu empfehlen.
Aber auch der Flughafen Zürich und Lissabon sind heute für euch geöffnet und bieten sich als Shuttle von Düsseldorf an.
Besonders freuen wir uns auch über die Kleineren Flieger in der VFR Platzrunde oder im Lokalflug von oder nach EDDL.

Wir freuen uns euch später begrüßen zu dürfen!

Charts für den Flughafen Düsseldorf findet ihr hier.

TAF: EDDL 221100Z 2212/2318 VRB03KT CAVOK TEMPO 2212/2217 29005KT BECMG 2302/2305 17006KT BECMG 2310/2312 22011KT
 
ATD - Prüfer
RG Düsseldorf - Mentor
Außer der Reihe heute mal ein Training auf EDDL_TWR von 20.00 bis 22.00 MESZ. Stefan freut sich auf IFR und VFR Verkehr zum Üben.
 
RG Düsseldorf - Event
Heute öffnet der Flughafen Düsseldorf aus der Reihe ab 18:00z (20:00lcl)

Wir öffnen heute für unsere Trainees von 18:00z - 20:00z den Flughafen der Landeshauptstadt Düsseldorf.
Wir freuen uns über viel IFR oder VFR Traffic.
Besonders zu erwähnen ist Heute das Tower CPT von Marcel Alberti der den Prüfern heute zeigen möchte was er drauf hat.
Zudem bieten sich super Shuttle Möglichkeiten zu den Onlinetagen nach Stuttgart, Dublin, Hamburg und Helsinki.

Wir freuen uns auf einen vollen Airport, viel Spaß auf der Frequenz und natürlich wünschen wir Marcel Alberti viel Erfolg!

TAF:
  • EDDL 221100Z 2212/2318 21011KT 9999 BKN030 TEMPO 2215/2219 SHRA BKN020CB PROB30 TEMPO 2215/2218 TSRA BECMG 2217/2220 19005KT TEMPO 2303/2309 BKN006

Nützliche Infos:

Scenery:
 
Zuletzt bearbeitet:
RG Düsseldorf - Event
Heute doppelte Power im Nördlichen Langen Sektor

Ab jetzt haben wir starke ATC Power für euch, wir öffnen für euch den Flughafen Düsseldorf(EDDL) und den Flughafen Köln-Bonn(EDDK) vom Boden bis zur Dünnluft.
Kommt VFR oder IFR vorbei wir freuen uns auf euch!

TAF:
  • EDDL 231100Z 2312/2418 21006KT 9999 BKN030 TEMPO 2312/2316 SHRA BKN012TCU BECMG 2321/2324 15005KT BECMG 2409/2411 19013KT TEMPO 2412/2416 21015G25KT
  • EDDK 231100Z 2312/2418 15004KT 9999 BKN030 BECMG 2312/2315 22005KT TEMPO 2312/2318 SHRA BKN015CB BECMG 2321/2324 16005KT BECMG 2409/2411 19010KT


Scenery:
 
Zuletzt bearbeitet:
RG Düsseldorf - Event
Heute öffnet der Flughafen Düsseldorf aus der Reihe ab 19:00z (20:00lcl)

Wir öffnen heute für unsere Trainees von 19:00z - 21:00z den Flughafen der Landeshauptstadt Düsseldorf.
Kommt vorbei und genießt bei schönstem Herbstwetter den Ausblick aus eurem VFR Flüggerät über der Stadt am Niederrhein oder Fliegt IFR eure Passagiere oder Fracht zu einer von vielen Destinationen auf der Kurz, mittel, oder Langstrecke.
Besonderes Highlight heute der Onlinetag am Franz-Josef-Strauß Flughafen in München (EDDM) aber auch die Flughäfen Lviv (UKLL), Prag (LKPR), London-Gatwick (EGKK) oder die Italienischen Kollegen sind Heute Abend für euch da und von Düsseldorf erreichbar.
Für unsere Langstrecken Fans lohnt sich Heute auch der Sprung über den Teich beim Oceanic Onlineday.


Wir freuen uns auf einen vollen Airport und viel Spaß auf der Frequenz!

TAF:
  • EDDL 041100Z 0412/0518 VRB03KT CAVOK TEMPO 0412/0416 24005KT BECMG 0501/0504 2000 BCFG TEMPO 0504/0508 0600 FG VV001 BECMG 0508/0511 7000

Nützliche Infos:

Scenery:
 
Zuletzt bearbeitet:
gelten für die Frequenzen, die aus dem Pilot Briefing oder die in den Charts hinterlegten?
Bei der Delivery gibt es nämlich einen Unterschied.
Delivery aus Charts: 121.770
Delivery aus Pilot Briefing : 121.775
 
ATD - Prüfer
RG Düsseldorf - Mentor
Das was dein Flugsimulator kann - in der Regel können die die 8,33 Frequenzen nicht und du musst ,775 eindrehen. ,770 wäre die offiziell richtige, das wird aber von den meisten Flugsimulatoren (und Vatsim?) bisher nicht unterstützt.
 
Der reale 8,33 Kanal wäre 121.780 - es gibt auch bei 8.33 kHz Kanälen kein .770.
121.775 ist ein 25 kHz Kanal, der eigentlich 'breiter' ist.
Die Frequenzen auf Vatsim sind noch 25 kHz, daher wird 121.77 bzw. 121.775 verwendet (früher wurde es überall nur 2stellig angezeigt, da kommt die 0 am Ende her) - du solltest soweit ich unsere letzten Tests im Kopf hab mit allen 3 Varianten (121.77, 121.775 oder 121.780) richtig rauskommen.
Im Flusi kannst du in machen Fliegern zwischen 8.33 und 25 kHz umstellen.
https://www.flightplanner.de/news/Umstellung_833.htm zeigt das ganz gut - hier würde 121.770 der 118.020 entsprechen, die es eben nicht gibt.
 
Oben